createdAt,value
2019-05-29T00:01:38.488Z,96742.83
2019-05-29T00:04:14.622Z,96738.91
2019-05-29T00:06:50.288Z,96737.59
2019-05-29T00:09:34.887Z,96740.03
2019-05-29T00:12:11.360Z,96736.30
2019-05-29T00:14:41.375Z,96744.45
2019-05-29T00:17:14.695Z,96750.98
2019-05-29T00:19:50.375Z,96748.55
2019-05-29T00:22:23.748Z,96754.25
2019-05-29T00:25:06.309Z,96751.80
2019-05-29T00:27:39.799Z,96750.98
2019-05-29T00:30:15.022Z,96747.70
2019-05-29T00:32:48.687Z,96747.20
2019-05-29T00:35:29.397Z,96741.68
2019-05-29T00:38:02.852Z,96747.88
2019-05-29T00:40:39.190Z,96741.84
2019-05-29T00:43:13.237Z,96736.43
2019-05-29T00:45:46.062Z,96740.88
2019-05-29T00:48:21.687Z,96738.42
2019-05-29T00:50:57.736Z,96740.05
2019-05-29T00:53:44.806Z,96745.45
2019-05-29T00:56:16.690Z,96739.05
2019-05-29T01:02:15.746Z,96732.89
2019-05-29T01:04:48.243Z,96735.00
2019-05-29T01:07:21.604Z,96726.86
2019-05-29T01:09:57.267Z,96724.22
2019-05-29T01:12:30.269Z,96729.30
2019-05-29T01:15:02.037Z,96728.48
2019-05-29T01:17:36.680Z,96726.86
2019-05-29T01:20:09.539Z,96733.70
2019-05-29T01:22:46.852Z,96737.63
2019-05-29T01:25:18.831Z,96733.37
2019-05-29T01:28:00.447Z,96736.81
2019-05-29T01:30:38.436Z,96740.25
2019-05-29T01:33:11.797Z,96750.06
2019-05-29T01:35:43.510Z,96746.26
2019-05-29T01:38:17.273Z,96745.27
2019-05-29T01:40:50.827Z,96741.52
2019-05-29T01:43:24.704Z,96735.65
2019-05-29T01:45:57.484Z,96730.42
2019-05-29T01:48:32.231Z,96733.34
2019-05-29T01:51:08.957Z,96733.86
2019-05-29T01:53:44.795Z,96731.39
2019-05-29T01:56:19.772Z,96732.86
2019-05-29T01:58:52.742Z,96728.12
2019-05-29T02:01:24.398Z,96739.08
2019-05-29T02:03:59.668Z,96737.27
2019-05-29T02:06:34.018Z,96741.84
2019-05-29T02:09:07.353Z,96744.45
2019-05-29T02:12:02.834Z,96738.09
2019-05-29T02:14:36.656Z,96744.14
2019-05-29T02:17:15.943Z,96735.16
2019-05-29T02:19:50.606Z,96740.39
2019-05-29T02:22:26.917Z,96738.40
2019-05-29T02:25:02.251Z,96741.53
2019-05-29T02:27:35.074Z,96743.80
2019-05-29T02:30:10.250Z,96742.66
2019-05-29T02:32:45.916Z,96744.45
2019-05-29T02:35:22.364Z,96741.49
2019-05-29T02:37:57.522Z,96727.47
2019-05-29T02:40:34.017Z,96739.36
2019-05-29T02:43:27.585Z,96742.80
2019-05-29T02:46:04.596Z,96749.01
2019-05-29T02:48:39.477Z,96752.75
2019-05-29T02:51:12.768Z,96750.97
2019-05-29T02:53:48.835Z,96747.05
2019-05-29T02:56:29.046Z,96741.83
2019-05-29T02:59:04.166Z,96743.09
2019-05-29T03:01:39.779Z,96747.66
2019-05-29T03:04:14.459Z,96749.79
2019-05-29T03:06:50.568Z,96744.25
2019-05-29T03:09:28.424Z,96757.80
2019-05-29T03:12:04.963Z,96755.19
2019-05-29T03:14:39.778Z,96759.45
2019-05-29T03:17:17.167Z,96759.77
2019-05-29T03:19:49.687Z,96760.77
2019-05-29T03:22:26.126Z,96755.55
2019-05-29T03:25:01.196Z,96763.20
2019-05-29T03:27:38.385Z,96763.38
2019-05-29T03:30:12.071Z,96762.42
2019-05-29T03:32:51.790Z,96763.56
2019-05-29T03:35:31.579Z,96769.13
2019-05-29T03:38:05.514Z,96766.34
2019-05-29T03:40:38.737Z,96769.61
2019-05-29T03:43:14.441Z,96772.94
2019-05-29T03:45:49.786Z,96776.50
2019-05-29T03:48:25.960Z,96773.09
2019-05-29T03:51:00.531Z,96766.88
2019-05-29T03:53:38.624Z,96769.48
2019-05-29T03:56:19.102Z,96772.25
2019-05-29T03:58:51.800Z,96784.67
2019-05-29T04:01:26.823Z,96782.55
2019-05-29T04:04:02.832Z,96780.23
2019-05-29T04:06:56.924Z,96785.62
2019-05-29T04:09:27.148Z,96788.08
2019-05-29T04:12:11.542Z,96781.86
2019-05-29T04:14:58.133Z,96788.20
2019-05-29T04:17:31.914Z,96787.88
2019-05-29T04:20:05.448Z,96790.27
2019-05-29T04:22:47.658Z,96785.56
2019-05-29T04:25:22.909Z,96794.52
2019-05-29T04:27:59.958Z,96795.46
2019-05-29T04:30:57.943Z,96792.63
2019-05-29T04:33:32.608Z,96791.45
2019-05-29T04:36:05.402Z,96794.36
2019-05-29T04:38:40.415Z,96799.40
2019-05-29T04:41:12.419Z,96803.08
2019-05-29T04:43:48.591Z,96804.70
2019-05-29T04:46:25.163Z,96802.84
2019-05-29T04:48:58.309Z,96801.84
2019-05-29T04:51:33.158Z,96802.41
2019-05-29T04:54:10.290Z,96798.56
2019-05-29T04:56:45.164Z,96812.89
2019-05-29T04:59:16.882Z,96809.73
2019-05-29T05:01:57.664Z,96819.67
2019-05-29T05:04:29.498Z,96813.52
2019-05-29T05:07:02.794Z,96820.63
2019-05-29T05:09:37.473Z,96823.18
2019-05-29T05:12:21.382Z,96822.14
2019-05-29T05:14:53.642Z,96826.59
2019-05-29T05:17:27.177Z,96838.11
2019-05-29T05:20:02.615Z,96827.02
2019-05-29T05:22:36.368Z,96831.25
2019-05-29T05:25:12.384Z,96840.83
2019-05-29T05:27:48.440Z,96845.30
2019-05-29T05:30:26.642Z,96845.45
2019-05-29T05:33:02.449Z,96849.07
2019-05-29T05:35:36.872Z,96841.59
2019-05-29T05:38:13.359Z,96856.41
2019-05-29T05:40:49.926Z,96854.93
2019-05-29T05:43:24.671Z,96852.65
2019-05-29T05:45:59.658Z,96855.98
2019-05-29T05:48:33.690Z,96862.05
2019-05-29T05:51:09.813Z,96861.69
2019-05-29T05:53:41.947Z,96862.84
2019-05-29T05:56:15.097Z,96860.73
2019-05-29T05:58:54.445Z,96863.84
2019-05-29T06:01:31.783Z,96863.20
2019-05-29T06:04:06.803Z,96872.52
2019-05-29T06:06:38.674Z,96875.67
2019-05-29T06:09:13.942Z,96880.75
2019-05-29T06:11:54.512Z,96884.05
2019-05-29T06:14:28.050Z,96877.50
2019-05-29T06:17:04.477Z,96878.44
2019-05-29T06:19:38.998Z,96876.28
2019-05-29T06:22:14.426Z,96880.27
2019-05-29T06:24:48.289Z,96888.91
2019-05-29T06:27:23.314Z,96883.36
2019-05-29T06:29:57.482Z,96886.13
2019-05-29T06:32:29.260Z,96891.14
2019-05-29T06:35:02.600Z,96892.97
2019-05-29T06:37:39.611Z,96899.14
2019-05-29T06:40:13.903Z,96896.41
2019-05-29T06:42:52.516Z,96899.95
2019-05-29T06:45:33.751Z,96903.42
2019-05-29T06:48:09.822Z,96920.80
2019-05-29T06:50:41.587Z,96912.74
2019-05-29T06:53:17.286Z,96915.22
2019-05-29T06:55:57.668Z,96920.86
2019-05-29T06:58:32.109Z,96917.19
2019-05-29T07:01:03.685Z,96934.05
2019-05-29T07:03:37.595Z,96930.63
2019-05-29T07:06:13.146Z,96936.06
2019-05-29T07:08:48.231Z,96940.35
2019-05-29T07:11:20.723Z,96938.81
2019-05-29T07:13:53.019Z,96941.74
2019-05-29T07:16:43.193Z,96942.16
2019-05-29T07:19:28.182Z,96942.15
2019-05-29T07:21:38.777Z,96945.32
2019-05-29T07:24:12.193Z,96940.32
2019-05-29T07:26:47.221Z,96943.20
2019-05-29T07:29:41.530Z,96953.31
2019-05-29T07:32:18.049Z,96952.27
2019-05-29T07:35:03.189Z,96952.52
2019-05-29T07:37:26.800Z,96959.17
2019-05-29T07:39:59.033Z,96961.63
2019-05-29T07:42:34.153Z,96965.13
2019-05-29T07:45:09.261Z,96964.09
2019-05-29T07:47:46.711Z,96962.63
2019-05-29T07:50:22.112Z,96965.72
2019-05-29T07:52:56.699Z,96966.52
2019-05-29T07:55:28.155Z,96971.00
2019-05-29T07:58:06.014Z,96971.73
2019-05-29T08:01:03.746Z,96974.63
2019-05-29T08:03:15.054Z,96977.50
2019-05-29T08:05:52.656Z,96980.41
2019-05-29T08:08:28.625Z,96982.83
2019-05-29T08:11:01.813Z,96983.41
2019-05-29T08:13:36.100Z,96991.02
2019-05-29T08:16:08.383Z,96984.59
2019-05-29T08:18:41.663Z,96990.95
2019-05-29T08:21:15.051Z,96985.93
2019-05-29T08:23:48.899Z,96993.42
2019-05-29T08:26:30.968Z,96997.90
2019-05-29T08:29:03.151Z,97000.50
2019-05-29T08:31:37.787Z,97004.56
2019-05-29T08:34:12.845Z,97008.92
2019-05-29T08:37:01.176Z,97009.27
2019-05-29T08:39:35.046Z,97010.49
2019-05-29T08:42:21.086Z,97018.35
2019-05-29T08:44:38.521Z,97020.26
2019-05-29T08:47:14.703Z,97021.48
2019-05-29T08:49:51.631Z,97026.59
2019-05-29T08:52:23.966Z,97028.62
2019-05-29T08:54:56.155Z,97034.17
2019-05-29T08:57:28.929Z,97032.25
2019-05-29T09:00:01.054Z,97033.47
2019-05-29T09:02:35.833Z,97042.15
2019-05-29T09:05:21.887Z,97038.20
2019-05-29T09:07:54.396Z,97049.55
2019-05-29T09:10:27.507Z,97048.70
2019-05-29T09:13:05.052Z,97055.53
2019-05-29T09:15:39.353Z,97056.91
2019-05-29T09:18:13.499Z,97064.77
2019-05-29T09:21:01.648Z,97069.95
2019-05-29T09:23:23.173Z,97067.02
2019-05-29T09:26:14.057Z,97069.60
2019-05-29T09:28:34.572Z,97073.77
2019-05-29T09:31:09.222Z,97071.21
2019-05-29T09:33:41.392Z,97072.55
2019-05-29T09:36:13.951Z,97068.28
2019-05-29T09:38:49.946Z,97066.16
2019-05-29T09:41:25.622Z,97066.55
2019-05-29T09:44:00.441Z,97069.97
2019-05-29T09:46:33.526Z,97079.70
2019-05-29T09:49:05.680Z,97077.65
2019-05-29T09:51:47.027Z,97074.59
2019-05-29T09:54:24.522Z,97079.02
2019-05-29T09:56:59.492Z,97082.61
2019-05-29T09:59:36.410Z,97081.83
2019-05-29T10:02:09.095Z,97081.41
2019-05-29T10:04:41.256Z,97082.36
2019-05-29T10:07:14.881Z,97076.94
2019-05-29T10:09:49.567Z,97075.59
2019-05-29T10:12:24.685Z,97079.27
2019-05-29T10:14:57.611Z,97081.45
2019-05-29T10:17:35.207Z,97086.19
2019-05-29T10:20:11.110Z,97088.94
2019-05-29T10:22:44.632Z,97083.80
2019-05-29T10:25:22.788Z,97087.09
2019-05-29T10:27:54.882Z,97088.95
2019-05-29T10:30:29.132Z,97087.09
2019-05-29T10:33:03.947Z,97090.52
2019-05-29T10:35:37.057Z,97089.24
2019-05-29T10:38:11.733Z,97095.70
2019-05-29T10:40:56.642Z,97090.60
2019-05-29T10:43:33.728Z,97093.52
2019-05-29T10:46:06.512Z,97096.49
2019-05-29T10:48:40.163Z,97093.81
2019-05-29T10:51:16.404Z,97087.33
2019-05-29T10:53:57.844Z,97092.67
2019-05-29T10:56:28.002Z,97099.59
2019-05-29T10:59:03.838Z,97100.70
2019-05-29T11:01:37.294Z,97100.98
2019-05-29T11:04:15.151Z,97091.92
2019-05-29T11:06:54.854Z,97096.50
2019-05-29T11:09:42.953Z,97087.31
2019-05-29T11:12:01.490Z,97089.78
2019-05-29T11:14:36.874Z,97094.33
2019-05-29T11:17:08.653Z,97097.31
2019-05-29T11:19:42.008Z,97090.59
2019-05-29T11:22:25.830Z,97096.77
2019-05-29T11:24:54.172Z,97093.27
2019-05-29T11:27:27.293Z,97095.45
2019-05-29T11:29:59.307Z,97085.22
2019-05-29T11:32:30.972Z,97088.16
2019-05-29T11:35:06.568Z,97088.98
2019-05-29T11:37:39.978Z,97088.42
2019-05-29T11:40:13.557Z,97088.68
2019-05-29T11:42:48.522Z,97091.93
2019-05-29T11:45:20.649Z,97086.53
2019-05-29T11:47:53.892Z,97079.78
2019-05-29T11:50:30.218Z,97069.89
2019-05-29T11:53:02.674Z,97067.67
2019-05-29T11:55:35.394Z,97071.97
2019-05-29T11:58:07.164Z,97076.91
2019-05-29T12:00:42.095Z,97081.92
2019-05-29T12:03:13.900Z,97083.13
2019-05-29T12:05:49.320Z,97082.72
2019-05-29T12:08:27.398Z,97086.67
2019-05-29T12:11:07.060Z,97089.31
2019-05-29T12:13:39.859Z,97084.45
2019-05-29T12:16:11.277Z,97082.20
2019-05-29T12:18:42.896Z,97077.27
2019-05-29T12:21:16.094Z,97081.93
2019-05-29T12:23:47.658Z,97081.33
2019-05-29T12:26:23.509Z,97085.09
2019-05-29T12:29:07.145Z,97077.54
2019-05-29T12:31:34.374Z,97086.47
2019-05-29T12:34:17.718Z,97080.59
2019-05-29T12:36:39.950Z,97077.78
2019-05-29T12:39:12.084Z,97072.99
2019-05-29T12:41:48.050Z,97072.63
2019-05-29T12:44:20.944Z,97068.40
2019-05-29T12:46:55.482Z,97058.59
2019-05-29T12:49:28.358Z,97062.23
2019-05-29T12:52:07.218Z,97068.14
2019-05-29T12:54:39.993Z,97060.02
2019-05-29T12:57:15.871Z,97061.14
2019-05-29T12:59:48.877Z,97056.72
2019-05-29T13:02:22.407Z,97053.13
2019-05-29T13:05:11.267Z,97054.07
2019-05-29T13:07:36.373Z,97057.43
2019-05-29T13:10:27.228Z,97057.80
2019-05-29T13:12:46.802Z,97055.16
2019-05-29T13:15:26.583Z,97059.28
2019-05-29T13:18:07.962Z,97059.63
2019-05-29T13:20:37.518Z,97058.05
2019-05-29T13:23:13.410Z,97059.75
2019-05-29T13:25:46.750Z,97066.58
2019-05-29T13:28:18.546Z,97065.27
2019-05-29T13:30:50.467Z,97058.87
2019-05-29T13:33:26.236Z,97064.45
2019-05-29T13:36:06.668Z,97051.87
2019-05-29T13:38:39.904Z,97060.39
2019-05-29T13:41:20.160Z,97055.49
2019-05-29T13:43:51.832Z,97057.98
2019-05-29T13:46:24.716Z,97060.63
2019-05-29T13:49:01.151Z,97063.03
2019-05-29T13:51:34.863Z,97057.99
2019-05-29T13:54:14.116Z,97060.84
2019-05-29T13:56:40.171Z,97064.69
2019-05-29T13:59:16.338Z,97068.27
2019-05-29T14:01:54.542Z,97067.77
2019-05-29T14:04:30.377Z,97068.72
2019-05-29T14:07:05.011Z,97065.20
2019-05-29T14:09:39.658Z,97070.99
2019-05-29T14:12:15.614Z,97070.44
2019-05-29T14:14:49.713Z,97068.78
2019-05-29T14:17:24.264Z,97074.52
2019-05-29T14:20:02.735Z,97077.38
2019-05-29T14:22:38.413Z,97069.14
2019-05-29T14:25:12.839Z,97069.72
2019-05-29T14:27:48.030Z,97068.95
2019-05-29T14:30:22.200Z,97070.42
2019-05-29T14:32:56.756Z,97066.53
2019-05-29T14:35:36.534Z,97067.27
2019-05-29T14:38:12.842Z,97064.55
2019-05-29T14:40:41.862Z,97068.16
2019-05-29T14:43:15.761Z,97065.13
2019-05-29T14:45:51.516Z,97062.09
2019-05-29T14:48:27.788Z,97070.23
2019-05-29T14:51:04.945Z,97065.50
2019-05-29T14:53:45.877Z,97067.66
2019-05-29T14:56:21.597Z,97065.27
2019-05-29T14:58:55.411Z,97063.14
2019-05-29T15:01:32.001Z,97055.45
2019-05-29T15:04:07.599Z,97050.58
2019-05-29T15:06:40.467Z,97058.31
2019-05-29T15:09:19.555Z,97054.30
2019-05-29T15:11:54.664Z,97054.92
2019-05-29T15:14:26.237Z,97051.34
2019-05-29T15:17:01.380Z,97053.80
2019-05-29T15:19:36.477Z,97046.56
2019-05-29T15:22:16.007Z,97052.20
2019-05-29T15:25:04.293Z,97046.77
2019-05-29T15:27:27.985Z,97051.65
2019-05-29T15:30:01.205Z,97047.82
2019-05-29T15:32:35.268Z,97042.16
2019-05-29T15:35:12.741Z,97044.63
2019-05-29T15:37:41.462Z,97043.27
2019-05-29T15:40:17.639Z,97049.81
2019-05-29T15:42:51.649Z,97048.84
2019-05-29T15:45:25.676Z,97048.53
2019-05-29T15:48:00.346Z,97057.47
2019-05-29T15:50:32.027Z,97052.54
2019-05-29T15:53:07.206Z,97054.00
2019-05-29T15:55:43.088Z,97058.18
2019-05-29T15:58:18.413Z,97054.08
2019-05-29T16:00:50.494Z,97057.33
2019-05-29T16:03:28.177Z,97059.16
2019-05-29T16:06:08.135Z,97064.89
2019-05-29T16:08:41.210Z,97060.84
2019-05-29T16:11:15.057Z,97061.83
2019-05-29T16:13:51.881Z,97063.23
2019-05-29T16:16:25.428Z,97059.87
2019-05-29T16:19:00.526Z,97060.73
2019-05-29T16:21:33.738Z,97058.72
2019-05-29T16:24:05.397Z,97052.98
2019-05-29T16:26:41.642Z,97052.93
2019-05-29T16:29:20.389Z,97055.58
2019-05-29T16:31:56.950Z,97056.39
2019-05-29T16:34:31.535Z,97062.70
2019-05-29T16:37:03.131Z,97063.02
2019-05-29T16:39:38.047Z,97070.25
2019-05-29T16:42:09.684Z,97070.14
2019-05-29T16:44:41.678Z,97078.18
2019-05-29T16:47:22.734Z,97074.61
2019-05-29T16:49:55.041Z,97073.20
2019-05-29T16:52:26.916Z,97075.92
2019-05-29T16:55:05.039Z,97080.82
2019-05-29T16:57:38.318Z,97072.77
2019-05-29T17:00:13.861Z,97075.41
2019-05-29T17:02:49.747Z,97072.31
2019-05-29T17:05:25.615Z,97070.88
2019-05-29T17:08:04.579Z,97077.19
2019-05-29T17:10:43.639Z,97073.33
2019-05-29T17:13:18.568Z,97081.86
2019-05-29T17:15:53.635Z,97083.45
2019-05-29T17:18:28.338Z,97085.45
2019-05-29T17:21:03.528Z,97089.48
2019-05-29T17:23:37.530Z,97094.45
2019-05-29T17:26:11.159Z,97091.78
2019-05-29T17:28:42.947Z,97093.55
2019-05-29T17:31:16.827Z,97094.01
2019-05-29T17:33:51.526Z,97098.96
2019-05-29T17:36:28.644Z,97093.39
2019-05-29T17:39:01.163Z,97096.98
2019-05-29T17:41:38.158Z,97097.72
2019-05-29T17:44:09.728Z,97097.17
2019-05-29T17:46:49.406Z,97103.16
2019-05-29T17:49:33.014Z,97105.48
2019-05-29T17:52:00.594Z,97107.13
2019-05-29T17:54:33.746Z,97107.28
2019-05-29T17:57:05.548Z,97097.47
2019-05-29T17:59:37.195Z,97095.52
2019-05-29T18:02:12.036Z,97095.44
2019-05-29T18:04:46.335Z,97093.30
2019-05-29T18:07:20.629Z,97096.87
2019-05-29T18:09:52.427Z,97095.05
2019-05-29T18:12:29.141Z,97095.41
2019-05-29T18:18:43.840Z,97101.58
2019-05-29T18:21:17.425Z,97102.13
2019-05-29T18:27:28.586Z,97105.49
2019-05-29T18:30:24.359Z,97116.22
2019-05-29T18:33:16.998Z,97115.78
2019-05-29T18:35:51.141Z,97119.52
2019-05-29T18:38:30.190Z,97118.94
2019-05-29T18:41:01.937Z,97124.59
2019-05-29T18:43:35.021Z,97127.30
2019-05-29T18:46:07.632Z,97130.08
2019-05-29T18:48:42.139Z,97130.05
2019-05-29T18:51:24.452Z,97134.73
2019-05-29T18:53:57.361Z,97136.58
2019-05-29T18:56:32.363Z,97136.25
2019-05-29T18:59:13.295Z,97144.42
2019-05-29T19:02:31.648Z,97147.77
2019-05-29T19:05:03.846Z,97150.13
2019-05-29T19:07:39.028Z,97152.23
2019-05-29T19:10:12.766Z,97149.86
2019-05-29T19:12:44.419Z,97153.56
2019-05-29T19:19:17.666Z,97157.52
2019-05-29T19:21:49.898Z,97160.09
2019-05-29T19:24:22.559Z,97166.88
2019-05-29T19:26:56.815Z,97158.78
2019-05-29T19:29:31.179Z,97168.34
2019-05-29T19:32:05.940Z,97165.80
2019-05-29T19:34:39.270Z,97171.70
2019-05-29T19:37:18.556Z,97171.21
2019-05-29T19:39:52.968Z,97165.50
2019-05-29T19:42:24.582Z,97168.11
2019-05-29T19:44:58.888Z,97167.05
2019-05-29T19:47:32.826Z,97164.95
2019-05-29T19:50:15.187Z,97159.97
2019-05-29T19:52:48.738Z,97166.64
2019-05-29T19:55:25.738Z,97162.12
2019-05-29T19:58:03.727Z,97163.52
2019-05-29T20:00:38.894Z,97167.89
2019-05-29T20:03:14.396Z,97167.36
2019-05-29T20:05:48.648Z,97171.94
2019-05-29T20:08:26.991Z,97174.53
2019-05-29T20:11:06.880Z,97172.58
2019-05-29T20:13:40.088Z,97170.92
2019-05-29T20:16:14.165Z,97170.92
2019-05-29T20:18:54.300Z,97174.63
2019-05-29T20:21:28.552Z,97174.29
2019-05-29T20:24:00.425Z,97177.81
2019-05-29T20:26:37.145Z,97179.13
2019-05-29T20:29:09.046Z,97181.95
2019-05-29T20:31:40.695Z,97182.20
2019-05-29T20:34:14.512Z,97180.88
2019-05-29T20:36:47.865Z,97178.74
2019-05-29T20:39:24.703Z,97186.29
2019-05-29T20:42:00.661Z,97180.84
2019-05-29T20:44:36.668Z,97187.42
2019-05-29T20:47:08.485Z,97191.20
2019-05-29T20:49:42.322Z,97188.73
2019-05-29T20:52:18.375Z,97181.84
2019-05-29T20:54:50.004Z,97180.37
2019-05-29T20:57:28.213Z,97191.55
2019-05-29T21:00:00.819Z,97188.92
2019-05-29T21:02:33.981Z,97184.15
2019-05-29T21:05:10.160Z,97184.15
2019-05-29T21:07:46.373Z,97186.53
2019-05-29T21:10:29.611Z,97185.27
2019-05-29T21:13:05.820Z,97187.70
2019-05-29T21:15:37.930Z,97181.17
2019-05-29T21:18:16.956Z,97181.84
2019-05-29T21:20:49.179Z,97183.54
2019-05-29T21:23:27.585Z,97187.64
2019-05-29T21:26:00.647Z,97190.08
2019-05-29T21:28:40.866Z,97184.97
2019-05-29T21:31:11.568Z,97192.07
2019-05-29T21:33:50.361Z,97194.06
2019-05-29T21:36:24.429Z,97190.61
2019-05-29T21:39:02.908Z,97195.27
2019-05-29T21:41:49.384Z,97193.44
2019-05-29T21:44:23.352Z,97201.33
2019-05-29T21:47:00.976Z,97195.43
2019-05-29T21:49:35.216Z,97194.63
2019-05-29T21:52:11.552Z,97196.11
2019-05-29T21:54:48.375Z,97193.84
2019-05-29T21:57:21.125Z,97196.82
2019-05-29T21:59:55.813Z,97194.48
2019-05-29T22:02:35.439Z,97196.86
2019-05-29T22:05:09.847Z,97197.72
2019-05-29T22:07:42.807Z,97196.25
2019-05-29T22:10:16.584Z,97196.74
2019-05-29T22:12:48.797Z,97193.97
2019-05-29T22:15:20.697Z,97196.48
2019-05-29T22:17:55.064Z,97201.77
2019-05-29T22:20:27.636Z,97197.38
2019-05-29T22:23:02.848Z,97197.56
2019-05-29T22:25:37.010Z,97192.82
2019-05-29T22:28:12.135Z,97186.44
2019-05-29T22:30:49.221Z,97187.45
2019-05-29T22:33:25.044Z,97183.66
2019-05-29T22:36:14.937Z,97178.77
2019-05-29T22:38:49.041Z,97180.81
2019-05-29T22:41:23.038Z,97177.39
2019-05-29T22:44:09.908Z,97170.52
2019-05-29T22:46:44.385Z,97172.19
2019-05-29T22:49:19.063Z,97172.70
2019-05-29T22:51:53.693Z,97171.05
2019-05-29T22:54:30.907Z,97172.88
2019-05-29T22:57:09.857Z,97169.46
2019-05-29T23:00:06.340Z,97169.44
2019-05-29T23:02:43.249Z,97166.68
2019-05-29T23:05:16.373Z,97165.70
2019-05-29T23:07:49.100Z,97155.34
2019-05-29T23:10:23.446Z,97154.37
2019-05-29T23:12:56.444Z,97157.66
2019-05-29T23:15:29.941Z,97152.92
2019-05-29T23:18:05.403Z,97150.06
2019-05-29T23:20:46.610Z,97147.77
2019-05-29T23:23:25.774Z,97154.52
2019-05-29T23:26:06.322Z,97147.97
2019-05-29T23:28:56.849Z,97149.80
2019-05-29T23:31:41.835Z,97156.36
2019-05-29T23:34:41.359Z,97152.22
2019-05-29T23:37:13.989Z,97151.11
2019-05-29T23:39:48.294Z,97159.13
2019-05-29T23:42:22.754Z,97157.65
2019-05-29T23:44:56.004Z,97157.18
2019-05-29T23:47:32.458Z,97164.23
2019-05-29T23:50:27.891Z,97166.41
2019-05-29T23:53:01.972Z,97168.05
2019-05-29T23:55:39.504Z,97172.31
2019-05-29T23:58:11.198Z,97176.73
